createdAt,value
2024-01-10T00:01:22.210Z,10.15
2024-01-10T00:03:52.118Z,9.15
2024-01-10T00:06:20.567Z,9.73
2024-01-10T00:08:48.522Z,8.93
2024-01-10T00:11:16.624Z,8.57
2024-01-10T00:13:44.712Z,10.30
2024-01-10T00:16:14.283Z,9.85
2024-01-10T00:18:42.377Z,9.50
2024-01-10T00:21:12.242Z,9.57
2024-01-10T00:23:40.162Z,7.57
2024-01-10T00:26:08.170Z,8.57
2024-01-10T00:28:36.163Z,9.05
2024-01-10T00:31:04.216Z,9.32
2024-01-10T00:33:32.928Z,7.78
2024-01-10T00:36:01.173Z,9.27
2024-01-10T00:38:30.443Z,6.70
2024-01-10T00:40:58.414Z,8.38
2024-01-10T00:43:26.447Z,8.65
2024-01-10T00:45:54.323Z,9.10
2024-01-10T00:48:22.334Z,9.98
2024-01-10T00:50:50.422Z,8.30
2024-01-10T00:53:18.403Z,8.30
2024-01-10T00:55:47.734Z,8.32
2024-01-10T00:58:18.081Z,9.70
2024-01-10T01:00:46.104Z,7.80
2024-01-10T01:03:14.021Z,9.73
2024-01-10T01:05:42.548Z,8.35
2024-01-10T01:08:10.560Z,9.18
2024-01-10T01:10:38.776Z,10.00
2024-01-10T01:13:08.256Z,10.15
2024-01-10T01:15:36.221Z,8.75
2024-01-10T01:18:07.071Z,9.80
2024-01-10T01:20:35.182Z,8.90
2024-01-10T01:23:03.226Z,8.82
2024-01-10T01:25:31.303Z,9.52
2024-01-10T01:27:59.176Z,10.35
2024-01-10T01:30:28.554Z,8.68
2024-01-10T01:32:56.670Z,10.55
2024-01-10T01:35:24.786Z,8.98
2024-01-10T01:37:52.966Z,9.80
2024-01-10T01:40:21.164Z,8.63
2024-01-10T01:42:49.221Z,9.82
2024-01-10T01:45:17.278Z,9.55
2024-01-10T01:47:47.412Z,8.43
2024-01-10T01:50:15.713Z,9.05
2024-01-10T01:52:44.010Z,9.27
2024-01-10T01:55:12.708Z,7.38
2024-01-10T01:57:40.704Z,9.02
2024-01-10T02:00:10.939Z,9.07
2024-01-10T02:02:39.520Z,8.18
2024-01-10T02:05:09.338Z,9.15
2024-01-10T02:07:37.449Z,9.93
2024-01-10T02:10:06.029Z,9.35
2024-01-10T02:12:33.971Z,9.05
2024-01-10T02:15:01.997Z,9.85
2024-01-10T02:17:32.358Z,8.48
2024-01-10T02:20:11.932Z,9.60
2024-01-10T02:22:40.081Z,9.00
2024-01-10T02:25:10.872Z,9.48
2024-01-10T02:27:39.594Z,9.25
2024-01-10T02:30:09.658Z,9.00
2024-01-10T02:32:37.794Z,9.70
2024-01-10T02:35:06.600Z,9.15
2024-01-10T02:37:34.533Z,8.23
2024-01-10T02:40:02.536Z,9.23
2024-01-10T02:42:32.320Z,9.57
2024-01-10T02:45:00.412Z,9.88
2024-01-10T02:47:31.155Z,9.45
2024-01-10T02:49:59.245Z,9.23
2024-01-10T02:52:29.284Z,9.50
2024-01-10T02:54:57.273Z,9.70
2024-01-10T02:57:25.328Z,10.38
2024-01-10T02:59:55.016Z,8.38
2024-01-10T03:02:24.706Z,10.40
2024-01-10T03:04:55.842Z,10.17
2024-01-10T03:07:25.973Z,9.27
2024-01-10T03:09:54.215Z,7.57
2024-01-10T03:12:22.130Z,8.50
2024-01-10T03:14:50.113Z,9.60
2024-01-10T03:17:21.876Z,10.40
2024-01-10T03:19:50.029Z,9.27
2024-01-10T03:22:17.917Z,9.30
2024-01-10T03:24:45.991Z,10.00
2024-01-10T03:27:13.954Z,10.57
2024-01-10T03:29:41.823Z,9.95
2024-01-10T03:32:09.811Z,9.43
2024-01-10T03:34:39.565Z,10.02
2024-01-10T03:37:07.793Z,8.73
2024-01-10T03:39:35.836Z,9.32
2024-01-10T03:42:06.125Z,10.75
2024-01-10T03:44:34.031Z,9.32
2024-01-10T03:47:02.121Z,9.18
2024-01-10T03:49:32.619Z,8.57
2024-01-10T03:52:01.980Z,9.35
2024-01-10T03:54:29.931Z,9.90
2024-01-10T03:56:57.840Z,9.82
2024-01-10T03:59:25.870Z,8.93
2024-01-10T04:01:53.944Z,8.88
2024-01-10T04:04:21.883Z,9.05
2024-01-10T04:06:49.781Z,8.45
2024-01-10T04:09:19.253Z,8.32
2024-01-10T04:11:47.760Z,9.95
2024-01-10T04:14:16.762Z,8.10
2024-01-10T04:16:44.808Z,8.50
2024-01-10T04:19:12.838Z,8.27
2024-01-10T04:21:41.980Z,11.15
2024-01-10T04:24:09.940Z,9.68
2024-01-10T04:26:39.239Z,8.73
2024-01-10T04:29:07.373Z,10.88
2024-01-10T04:31:36.833Z,9.82
2024-01-10T04:34:05.120Z,9.73
2024-01-10T04:36:33.004Z,9.10
2024-01-10T04:39:00.938Z,9.93
2024-01-10T04:41:28.975Z,9.00
2024-01-10T04:43:58.376Z,9.20
2024-01-10T04:46:26.351Z,9.05
2024-01-10T04:48:54.415Z,8.30
2024-01-10T04:51:22.533Z,9.60
2024-01-10T04:53:50.587Z,8.98
2024-01-10T04:56:18.628Z,9.85
2024-01-10T04:58:47.703Z,9.63
2024-01-10T05:01:17.237Z,9.85
2024-01-10T05:03:45.270Z,9.15
2024-01-10T05:06:13.431Z,9.02
2024-01-10T05:08:41.360Z,10.23
2024-01-10T05:11:09.362Z,10.32
2024-01-10T05:13:37.465Z,10.48
2024-01-10T05:16:08.046Z,9.82
2024-01-10T05:18:37.374Z,10.32
2024-01-10T05:21:05.960Z,9.40
2024-01-10T05:23:33.880Z,9.73
2024-01-10T05:26:01.816Z,8.07
2024-01-10T05:28:29.692Z,10.40
2024-01-10T05:30:57.569Z,9.98
2024-01-10T05:33:25.834Z,9.88
2024-01-10T05:35:55.959Z,10.32
2024-01-10T05:38:23.940Z,9.75
2024-01-10T05:40:53.113Z,9.98
2024-01-10T05:43:21.277Z,10.48
2024-01-10T05:45:49.492Z,9.55
2024-01-10T05:48:18.598Z,8.90
2024-01-10T05:50:46.641Z,9.60
2024-01-10T05:53:18.474Z,8.75
2024-01-10T05:55:46.726Z,8.88
2024-01-10T05:58:14.702Z,9.40
2024-01-10T06:00:42.578Z,10.15
2024-01-10T06:03:10.566Z,10.88
2024-01-10T06:05:38.622Z,10.70
2024-01-10T06:08:06.967Z,8.85
2024-01-10T06:10:38.160Z,9.35
2024-01-10T06:13:06.583Z,9.50
2024-01-10T06:15:35.301Z,9.57
2024-01-10T06:18:04.846Z,9.20
2024-01-10T06:20:34.047Z,9.68
2024-01-10T06:23:02.026Z,9.98
2024-01-10T06:25:29.968Z,10.20
2024-01-10T06:27:59.379Z,9.15
2024-01-10T06:30:27.986Z,8.38
2024-01-10T06:32:56.388Z,9.18
2024-01-10T06:35:24.546Z,10.70
2024-01-10T06:37:52.887Z,10.88
2024-01-10T06:40:22.919Z,9.32
2024-01-10T06:42:50.951Z,9.35
2024-01-10T06:45:21.277Z,9.65
2024-01-10T06:47:49.472Z,9.85
2024-01-10T06:50:18.036Z,9.32
2024-01-10T06:52:45.926Z,8.95
2024-01-10T06:55:14.012Z,10.00
2024-01-10T06:57:42.021Z,9.55
2024-01-10T07:00:12.242Z,10.27
2024-01-10T07:02:42.293Z,10.80
2024-01-10T07:05:11.211Z,10.30
2024-01-10T07:07:39.220Z,10.70
2024-01-10T07:10:07.978Z,10.70
2024-01-10T07:12:36.385Z,10.15
2024-01-10T07:15:05.254Z,10.63
2024-01-10T07:17:34.524Z,10.73
2024-01-10T07:20:05.244Z,10.45
2024-01-10T07:22:33.436Z,10.48
2024-01-10T07:25:01.612Z,10.27
2024-01-10T07:27:29.601Z,8.75
2024-01-10T07:29:58.781Z,8.80
2024-01-10T07:32:26.896Z,9.00
2024-01-10T07:34:55.008Z,10.93
2024-01-10T07:37:24.405Z,10.35
2024-01-10T07:39:52.570Z,10.60
2024-01-10T07:42:20.571Z,10.23
2024-01-10T07:44:52.494Z,9.75
2024-01-10T07:47:22.245Z,10.02
2024-01-10T07:49:52.880Z,9.15
2024-01-10T07:52:23.806Z,10.60
2024-01-10T07:55:24.591Z,11.23
2024-01-10T07:58:04.101Z,10.00
2024-01-10T08:00:32.220Z,9.95
2024-01-10T08:03:00.750Z,10.25
2024-01-10T08:05:29.500Z,10.52
2024-01-10T08:07:59.561Z,10.35
2024-01-10T08:10:29.546Z,11.30
2024-01-10T08:12:58.407Z,10.95
2024-01-10T08:15:26.581Z,10.45
2024-01-10T08:17:55.031Z,10.82
2024-01-10T08:20:23.939Z,11.05
2024-01-10T08:22:52.266Z,11.45
2024-01-10T08:25:20.426Z,11.77
2024-01-10T08:27:50.122Z,10.23
2024-01-10T08:30:18.426Z,11.65
2024-01-10T08:32:46.705Z,12.13
2024-01-10T08:35:15.037Z,9.77
2024-01-10T08:37:45.571Z,10.65
2024-01-10T08:40:16.303Z,10.27
2024-01-10T08:42:44.692Z,10.45
2024-01-10T08:45:16.072Z,11.05
2024-01-10T08:47:44.882Z,11.88
2024-01-10T08:50:13.186Z,10.25
2024-01-10T08:52:41.403Z,10.07
2024-01-10T08:55:13.560Z,12.25
2024-01-10T08:57:42.609Z,11.35
2024-01-10T09:00:13.478Z,12.43
2024-01-10T09:02:43.395Z,13.00
2024-01-10T09:05:12.323Z,14.05
2024-01-10T09:07:41.338Z,12.88
2024-01-10T09:10:10.179Z,15.27
2024-01-10T09:12:38.521Z,12.70
2024-01-10T09:15:09.480Z,12.73
2024-01-10T09:17:37.696Z,14.60
2024-01-10T09:20:09.673Z,13.93
2024-01-10T09:22:39.095Z,15.70
2024-01-10T09:25:08.225Z,13.98
2024-01-10T09:27:37.337Z,15.40
2024-01-10T09:30:09.779Z,13.50
2024-01-10T09:32:39.102Z,14.43
2024-01-10T09:35:10.407Z,15.02
2024-01-10T09:37:38.701Z,12.57
2024-01-10T09:40:08.545Z,13.95
2024-01-10T09:42:38.802Z,16.75
2024-01-10T09:45:09.309Z,15.30
2024-01-10T09:47:40.052Z,17.38
2024-01-10T09:50:11.434Z,14.85
2024-01-10T09:52:44.448Z,13.38
2024-01-10T09:55:15.339Z,13.27
2024-01-10T09:57:43.441Z,16.23
2024-01-10T10:00:13.102Z,12.43
2024-01-10T10:02:42.158Z,17.00
2024-01-10T10:05:16.685Z,16.42
2024-01-10T10:07:49.519Z,18.35
2024-01-10T10:10:18.637Z,13.70
2024-01-10T10:12:48.521Z,18.85
2024-01-10T10:15:19.947Z,15.95
2024-01-10T10:17:49.857Z,15.93
2024-01-10T10:20:23.860Z,18.08
2024-01-10T10:23:11.805Z,17.17
2024-01-10T10:25:45.827Z,16.02
2024-01-10T10:28:24.864Z,18.45
2024-01-10T10:30:58.488Z,16.40
2024-01-10T10:33:26.922Z,16.80
2024-01-10T10:35:56.742Z,18.80
2024-01-10T10:38:25.108Z,17.05
2024-01-10T10:40:54.220Z,16.20
2024-01-10T10:43:24.159Z,18.02
2024-01-10T10:45:52.681Z,19.08
2024-01-10T10:48:23.075Z,16.67
2024-01-10T10:51:01.745Z,18.27
2024-01-10T10:53:31.365Z,17.75
2024-01-10T10:56:01.581Z,18.13
2024-01-10T10:58:30.281Z,16.83
2024-01-10T11:01:00.369Z,18.17
2024-01-10T11:03:30.816Z,16.85
2024-01-10T11:06:03.791Z,17.05
2024-01-10T11:08:36.223Z,17.90
2024-01-10T11:11:08.505Z,18.52
2024-01-10T11:13:53.965Z,18.77
2024-01-10T11:16:43.940Z,16.10
2024-01-10T11:19:44.592Z,15.00
2024-01-10T11:22:24.450Z,18.65
2024-01-10T11:24:52.962Z,19.00
2024-01-10T11:27:21.274Z,17.77
2024-01-10T11:29:49.490Z,17.05
2024-01-10T11:32:18.658Z,18.80
2024-01-10T11:34:57.006Z,21.23
2024-01-10T11:37:30.905Z,19.30
2024-01-10T11:39:59.138Z,15.65
2024-01-10T11:42:43.466Z,17.65
2024-01-10T11:45:11.559Z,19.17
2024-01-10T11:47:42.352Z,19.98
2024-01-10T11:50:11.007Z,17.98
2024-01-10T11:52:40.500Z,19.77
2024-01-10T11:55:09.832Z,19.95
2024-01-10T11:57:38.447Z,19.10
2024-01-10T12:00:09.223Z,17.23
2024-01-10T12:02:38.817Z,18.73
2024-01-10T12:05:08.419Z,17.23
2024-01-10T12:07:36.683Z,19.98
2024-01-10T12:10:07.150Z,19.17
2024-01-10T12:12:35.599Z,18.30
2024-01-10T12:15:04.109Z,19.60
2024-01-10T12:17:32.318Z,20.27
2024-01-10T12:20:00.969Z,17.63
2024-01-10T12:22:30.057Z,18.77
2024-01-10T12:25:09.192Z,19.45
2024-01-10T12:27:41.109Z,18.83
2024-01-10T12:30:11.364Z,15.60
2024-01-10T12:32:39.809Z,16.92
2024-01-10T12:35:09.049Z,18.00
2024-01-10T12:37:37.523Z,18.77
2024-01-10T12:40:11.190Z,19.73
2024-01-10T12:43:24.162Z,18.67
2024-01-10T12:46:05.761Z,19.83
2024-01-10T12:48:34.646Z,16.92
2024-01-10T12:51:05.330Z,20.15
2024-01-10T12:53:33.962Z,16.90
2024-01-10T12:56:04.388Z,22.08
2024-01-10T12:58:33.972Z,19.05
2024-01-10T13:01:02.267Z,15.95
2024-01-10T13:03:30.454Z,20.35
2024-01-10T13:05:59.701Z,18.67
2024-01-10T13:08:28.106Z,19.02
2024-01-10T13:10:57.132Z,18.33
2024-01-10T13:13:26.699Z,19.63
2024-01-10T13:15:57.080Z,19.25
2024-01-10T13:18:25.892Z,21.33
2024-01-10T13:20:54.540Z,20.38
2024-01-10T13:23:24.375Z,20.95
2024-01-10T13:25:52.832Z,18.48
2024-01-10T13:28:21.071Z,18.55
2024-01-10T13:30:52.128Z,19.77
2024-01-10T13:33:21.774Z,19.15
2024-01-10T13:35:50.809Z,17.52
2024-01-10T13:38:18.989Z,19.05
2024-01-10T13:40:48.472Z,21.33
2024-01-10T13:43:16.885Z,26.33
2024-01-10T13:45:45.088Z,22.02
2024-01-10T13:48:15.408Z,21.08
2024-01-10T13:50:43.784Z,19.92
2024-01-10T13:53:12.213Z,20.52
2024-01-10T13:55:41.341Z,19.75
2024-01-10T13:58:09.753Z,20.48
2024-01-10T14:00:39.484Z,21.90
2024-01-10T14:03:10.871Z,20.90
2024-01-10T14:05:41.056Z,18.45
2024-01-10T14:08:10.196Z,19.75
2024-01-10T14:10:40.132Z,19.77
2024-01-10T14:13:08.509Z,19.80
2024-01-10T14:15:36.948Z,21.08
2024-01-10T14:18:06.031Z,22.98
2024-01-10T14:20:34.512Z,24.80
2024-01-10T14:23:04.391Z,22.95
2024-01-10T14:25:32.843Z,21.75
2024-01-10T14:28:01.614Z,20.75
2024-01-10T14:30:29.911Z,19.67
2024-01-10T14:33:00.669Z,19.45
2024-01-10T14:35:29.270Z,20.33
2024-01-10T14:37:57.610Z,20.08
2024-01-10T14:40:27.120Z,22.27
2024-01-10T14:42:55.240Z,20.48
2024-01-10T14:45:23.791Z,19.98
2024-01-10T14:47:52.659Z,21.75
2024-01-10T14:50:20.798Z,21.02
2024-01-10T14:52:49.231Z,20.75
2024-01-10T14:55:17.645Z,20.55
2024-01-10T14:57:47.669Z,23.00
2024-01-10T15:00:22.282Z,21.73
2024-01-10T15:02:54.325Z,20.63
2024-01-10T15:05:27.440Z,20.37
2024-01-10T15:07:56.067Z,20.77
2024-01-10T15:10:24.206Z,20.05
2024-01-10T15:12:53.685Z,21.52
2024-01-10T15:15:22.105Z,21.48
2024-01-10T15:17:50.729Z,20.90
2024-01-10T15:20:19.022Z,20.33
2024-01-10T15:22:47.610Z,19.10
2024-01-10T15:25:15.953Z,19.73
2024-01-10T15:27:44.088Z,18.15
2024-01-10T15:30:16.943Z,20.30
2024-01-10T15:35:14.700Z,20.23
2024-01-10T15:37:43.864Z,21.33
2024-01-10T15:40:13.021Z,15.20
2024-01-10T15:42:41.217Z,16.52
2024-01-10T15:45:10.640Z,19.25
2024-01-10T15:47:42.532Z,20.75
2024-01-10T15:50:12.346Z,20.98
2024-01-10T15:52:40.980Z,21.13
2024-01-10T15:55:50.846Z,20.88
2024-01-10T15:58:54.714Z,18.40
2024-01-10T16:01:32.835Z,17.73
2024-01-10T16:04:02.950Z,20.25
2024-01-10T16:06:33.605Z,15.05
2024-01-10T16:09:05.065Z,13.40
2024-01-10T16:11:44.454Z,16.75
2024-01-10T16:14:12.892Z,15.48
2024-01-10T16:16:41.030Z,15.57
2024-01-10T16:19:10.920Z,16.50
2024-01-10T16:21:39.196Z,18.40
2024-01-10T16:24:09.208Z,20.02
2024-01-10T16:26:37.970Z,18.23
2024-01-10T16:29:06.494Z,16.92
2024-01-10T16:31:38.115Z,21.60
2024-01-10T16:34:06.285Z,16.38
2024-01-10T16:36:35.742Z,18.00
2024-01-10T16:39:03.992Z,19.30
2024-01-10T16:41:33.741Z,20.75
2024-01-10T16:44:01.924Z,20.92
2024-01-10T16:46:30.121Z,19.67
2024-01-10T16:48:58.251Z,25.02
2024-01-10T16:51:26.465Z,20.83
2024-01-10T16:53:55.906Z,19.48
2024-01-10T16:56:24.052Z,19.52
2024-01-10T16:58:53.248Z,15.98
2024-01-10T17:01:21.731Z,23.40
2024-01-10T17:03:50.573Z,21.13
2024-01-10T17:06:19.311Z,17.25
2024-01-10T17:08:47.842Z,23.20
2024-01-10T17:11:18.995Z,22.17
2024-01-10T17:13:48.200Z,24.85
2024-01-10T17:16:16.875Z,20.90
2024-01-10T17:18:45.469Z,18.85
2024-01-10T17:21:14.003Z,18.75
2024-01-10T17:23:43.077Z,20.33
2024-01-10T17:26:11.471Z,16.08
2024-01-10T17:28:40.937Z,15.25
2024-01-10T17:31:09.083Z,17.08
2024-01-10T17:33:37.446Z,20.70
2024-01-10T17:36:08.056Z,19.80
2024-01-10T17:38:36.624Z,20.17
2024-01-10T17:41:04.969Z,18.08
2024-01-10T17:43:33.029Z,15.68
2024-01-10T17:46:02.563Z,15.00
2024-01-10T17:48:30.860Z,17.02
2024-01-10T17:50:59.127Z,17.33
2024-01-10T17:53:27.254Z,21.15
2024-01-10T17:55:57.812Z,16.38
2024-01-10T17:58:25.902Z,16.48
2024-01-10T18:00:56.749Z,15.95
2024-01-10T18:03:26.320Z,15.77
2024-01-10T18:05:57.114Z,18.25
2024-01-10T18:08:25.271Z,17.20
2024-01-10T18:10:55.454Z,19.13
2024-01-10T18:13:23.720Z,21.30
2024-01-10T18:15:52.142Z,24.00
2024-01-10T18:18:21.538Z,25.63
2024-01-10T18:20:52.827Z,25.92
2024-01-10T18:23:21.164Z,26.90
2024-01-10T18:25:51.369Z,20.38
2024-01-10T18:28:21.937Z,19.27
2024-01-10T18:30:50.071Z,21.80
2024-01-10T18:33:18.312Z,17.13
2024-01-10T18:35:46.836Z,24.45
2024-01-10T18:38:17.695Z,18.52
2024-01-10T18:40:46.760Z,17.50
2024-01-10T18:43:15.581Z,23.35
2024-01-10T18:45:44.236Z,24.45
2024-01-10T18:48:13.079Z,17.70
2024-01-10T18:50:41.979Z,17.45
2024-01-10T18:53:10.759Z,21.45
2024-01-10T18:55:41.016Z,18.45
2024-01-10T18:58:11.722Z,14.93
2024-01-10T19:00:41.279Z,15.80
2024-01-10T19:03:09.502Z,18.45
2024-01-10T19:05:37.982Z,16.15
2024-01-10T19:08:06.677Z,24.15
2024-01-10T19:10:35.260Z,16.33
2024-01-10T19:13:05.567Z,13.65
2024-01-10T19:15:34.615Z,14.73
2024-01-10T19:18:03.550Z,18.33
2024-01-10T19:20:32.275Z,15.60
2024-01-10T19:23:03.465Z,17.05
2024-01-10T19:25:35.389Z,22.58
2024-01-10T19:28:05.773Z,20.42
2024-01-10T19:30:36.239Z,17.25
2024-01-10T19:33:05.902Z,16.42
2024-01-10T19:35:36.240Z,20.02
2024-01-10T19:38:05.325Z,21.05
2024-01-10T19:40:35.754Z,26.08
2024-01-10T19:43:05.970Z,24.98
2024-01-10T19:45:34.871Z,21.00
2024-01-10T19:48:03.049Z,25.45
2024-01-10T19:50:31.590Z,20.48
2024-01-10T19:52:59.732Z,19.42
2024-01-10T19:55:27.906Z,19.98
2024-01-10T19:57:56.347Z,17.48
2024-01-10T20:00:27.590Z,17.52
2024-01-10T20:02:55.822Z,18.00
2024-01-10T20:05:25.143Z,21.27
2024-01-10T20:07:54.469Z,20.30
2024-01-10T20:10:25.537Z,20.30
2024-01-10T20:12:54.447Z,20.25
2024-01-10T20:15:23.292Z,20.25
2024-01-10T20:17:53.865Z,17.08
2024-01-10T20:20:22.518Z,18.38
2024-01-10T20:22:50.716Z,17.73
2024-01-10T20:25:18.719Z,21.65
2024-01-10T20:27:46.668Z,19.05
2024-01-10T20:30:15.524Z,18.83
2024-01-10T20:32:44.294Z,15.80
2024-01-10T20:35:13.755Z,22.05
2024-01-10T20:37:42.342Z,23.23
2024-01-10T20:40:14.023Z,24.63
2024-01-10T20:42:44.080Z,21.40
2024-01-10T20:45:17.484Z,18.92
2024-01-10T20:47:46.006Z,23.63
2024-01-10T20:50:15.490Z,20.30
2024-01-10T20:52:44.237Z,24.73
2024-01-10T20:55:12.245Z,23.92
2024-01-10T20:57:40.564Z,20.50
2024-01-10T21:00:11.719Z,23.88
2024-01-10T21:02:39.956Z,24.48
2024-01-10T21:05:09.480Z,21.85
2024-01-10T21:07:39.095Z,20.98
2024-01-10T21:10:07.611Z,16.00
2024-01-10T21:12:35.550Z,21.42
2024-01-10T21:15:06.961Z,22.70
2024-01-10T21:17:35.049Z,21.38
2024-01-10T21:20:03.592Z,20.92
2024-01-10T21:22:32.217Z,19.27
2024-01-10T21:25:01.471Z,21.33
2024-01-10T21:27:29.374Z,19.17
2024-01-10T21:29:57.321Z,21.85
2024-01-10T21:32:25.270Z,18.10
2024-01-10T21:34:53.411Z,20.48
2024-01-10T21:37:21.854Z,20.40
2024-01-10T21:39:49.845Z,20.15
2024-01-10T21:42:19.424Z,20.73
2024-01-10T21:44:47.340Z,20.35
2024-01-10T21:47:16.178Z,20.52
2024-01-10T21:49:44.945Z,23.40
2024-01-10T21:52:13.385Z,22.73
2024-01-10T21:54:41.632Z,22.05
2024-01-10T21:57:09.772Z,22.58
2024-01-10T21:59:41.674Z,19.13
2024-01-10T22:02:09.762Z,15.13
2024-01-10T22:04:37.836Z,18.67
2024-01-10T22:07:05.843Z,20.85
2024-01-10T22:09:33.992Z,20.85
2024-01-10T22:12:01.965Z,20.35
2024-01-10T22:14:29.927Z,20.98
2024-01-10T22:16:59.306Z,18.65
2024-01-10T22:19:27.475Z,20.02
2024-01-10T22:21:55.418Z,24.70
2024-01-10T22:24:23.709Z,23.75
2024-01-10T22:26:53.071Z,22.05
2024-01-10T22:29:22.269Z,20.45
2024-01-10T22:31:52.809Z,21.45
2024-01-10T22:34:22.268Z,21.35
2024-01-10T22:36:50.310Z,20.05
2024-01-10T22:39:18.274Z,22.17
2024-01-10T22:41:46.186Z,21.98
2024-01-10T22:44:17.730Z,21.75
2024-01-10T22:46:46.411Z,22.20
2024-01-10T22:49:14.980Z,18.15
2024-01-10T22:51:44.357Z,20.20
2024-01-10T22:54:14.690Z,22.40
2024-01-10T22:56:43.710Z,20.63
2024-01-10T22:59:12.265Z,20.25
2024-01-10T23:01:40.779Z,18.15
2024-01-10T23:04:08.727Z,21.60
2024-01-10T23:06:37.012Z,18.63
2024-01-10T23:09:06.898Z,18.67
2024-01-10T23:11:35.786Z,19.92
2024-01-10T23:14:03.910Z,21.13
2024-01-10T23:16:31.964Z,18.33
2024-01-10T23:18:59.982Z,18.55
2024-01-10T23:21:28.067Z,16.10
2024-01-10T23:23:58.455Z,19.98
2024-01-10T23:26:27.806Z,16.50
2024-01-10T23:28:55.801Z,21.27
2024-01-10T23:31:23.969Z,16.10
2024-01-10T23:33:52.128Z,18.52
2024-01-10T23:36:20.145Z,19.83
2024-01-10T23:38:48.218Z,23.98
2024-01-10T23:41:16.292Z,22.15
2024-01-10T23:43:45.700Z,22.02
2024-01-10T23:46:13.828Z,20.45
2024-01-10T23:48:42.019Z,19.70
2024-01-10T23:51:10.048Z,19.58
2024-01-10T23:53:38.260Z,20.02
2024-01-10T23:56:07.993Z,20.02
2024-01-10T23:58:36.073Z,22.48
